This is the latest recevied weather packets stored in our database for station/object S50APT-10. If no packets are shown the sender has not sent any weather packets the latest 10 day(s).
| Time | Temp. | Humidity | Pressure | Rain* | Wind** | Luminosity | Snow |
|---|---|---|---|---|---|---|---|
| 1777571591 | 10° C | 33% | 1028.8 hPa | - | - | - | - |
| 1777570484 | 10.56° C | 30% | 1028.8 hPa | - | - | - | - |
| 1777570416 | 10.56° C | 30% | 1028.8 hPa | - | - | - | - |
| 1777569515 | 11.11° C | 28% | 1028.5 hPa | - | - | - | - |
| 1777568610 | 12.78° C | 26% | 1028.4 hPa | - | - | - | - |
| 1777567713 | 13.33° C | 26% | 1028.4 hPa | - | - | - | - |
| 1777566809 | 12.22° C | 26% | 1028.3 hPa | - | - | - | - |
| 1777565906 | 13.33° C | 25% | 1028.4 hPa | - | - | - | - |
| 1777565006 | 13.33° C | 24% | 1028.5 hPa | - | - | - | - |
| 1777564105 | 15° C | 23% | 1028.4 hPa | - | - | - | - |
| 1777563204 | 14.44° C | 24% | 1028.3 hPa | - | - | - | - |
| 1777562303 | 15° C | 22% | 1028.5 hPa | - | - | - | - |
| 1777561402 | 16.11° C | 21% | 1028.4 hPa | - | - | - | - |
| 1777560501 | 15.56° C | 21% | 1028.5 hPa | - | - | - | - |
| 1777559599 | 16.67° C | 20% | 1028.6 hPa | - | - | - | - |
| 1777558699 | 16.11° C | 21% | 1028.6 hPa | - | - | - | - |
| 1777557799 | 15.56° C | 20% | 1028.7 hPa | - | - | - | - |
| 1777556898 | 17.78° C | 20% | 1028.7 hPa | - | - | - | - |
| 1777555998 | 16.67° C | 23% | 1028.7 hPa | - | - | - | - |
| 1777555093 | 16.67° C | 23% | 1028.9 hPa | - | - | - | - |
| 1777554193 | 16.67° C | 22% | 1029 hPa | - | - | - | - |
| 1777553292 | 16.11° C | 21% | 1029.3 hPa | - | - | - | - |
| 1777552391 | 15° C | 22% | 1029.5 hPa | - | - | - | - |
| 1777551490 | 20.56° C | 18% | 1029.6 hPa | - | - | - | - |
| 1777550589 | 18.89° C | 19% | 1029.7 hPa | - | - | - | - |
* Rain since midnight (hover to see other rain measurements)
** Current wind speed in m/s (hover to see current wind gust speed)